createdAt,value
2018-09-27T00:00:10.990Z,1.80
2018-09-27T00:02:39.308Z,1.73
2018-09-27T00:05:07.692Z,1.97
2018-09-27T00:07:36.135Z,1.83
2018-09-27T00:10:04.515Z,2.10
2018-09-27T00:12:32.897Z,1.53
2018-09-27T00:15:01.252Z,1.60
2018-09-27T00:17:29.642Z,1.73
2018-09-27T00:19:58.220Z,1.90
2018-09-27T00:22:26.699Z,1.70
2018-09-27T00:24:55.340Z,1.80
2018-09-27T00:27:23.688Z,1.80
2018-09-27T00:29:52.045Z,1.77
2018-09-27T00:32:20.477Z,1.60
2018-09-27T00:34:49.088Z,1.87
2018-09-27T00:37:17.440Z,1.90
2018-09-27T00:39:45.851Z,1.80
2018-09-27T00:42:14.255Z,1.63
2018-09-27T00:44:43.248Z,2.10
2018-09-27T00:47:11.602Z,2.10
2018-09-27T00:49:40.038Z,1.80
2018-09-27T00:52:08.393Z,1.87
2018-09-27T00:54:36.745Z,1.77
2018-09-27T00:57:05.126Z,1.70
2018-09-27T00:59:33.596Z,2.00
2018-09-27T01:02:09.687Z,2.10
2018-09-27T01:04:38.004Z,2.00
2018-09-27T01:07:06.321Z,1.80
2018-09-27T01:09:34.629Z,2.00
2018-09-27T01:12:02.959Z,1.70
2018-09-27T01:14:31.303Z,1.93
2018-09-27T01:16:59.602Z,2.03
2018-09-27T01:19:27.949Z,1.90
2018-09-27T01:21:56.354Z,1.90
2018-09-27T01:24:24.805Z,1.67
2018-09-27T01:26:53.075Z,1.57
2018-09-27T01:29:21.417Z,1.73
2018-09-27T01:31:49.711Z,1.80
2018-09-27T01:34:18.207Z,1.60
2018-09-27T01:36:46.551Z,1.73
2018-09-27T01:39:14.904Z,1.70
2018-09-27T01:41:43.203Z,1.80
2018-09-27T01:44:11.536Z,2.10
2018-09-27T01:46:40.008Z,1.97
2018-09-27T01:49:08.363Z,2.27
2018-09-27T01:51:36.677Z,2.00
2018-09-27T01:54:04.971Z,1.67
2018-09-27T01:56:33.255Z,1.70
2018-09-27T01:59:01.542Z,2.83
2018-09-27T02:01:29.840Z,2.03
2018-09-27T02:03:58.164Z,2.20
2018-09-27T02:06:26.773Z,2.33
2018-09-27T02:08:56.097Z,2.30
2018-09-27T02:11:24.511Z,2.27
2018-09-27T02:13:52.803Z,2.20
2018-09-27T02:16:21.121Z,2.47
2018-09-27T02:18:49.443Z,2.00
2018-09-27T02:21:17.783Z,2.30
2018-09-27T02:23:46.288Z,1.67
2018-09-27T02:26:14.597Z,1.80
2018-09-27T02:28:42.895Z,2.40
2018-09-27T02:31:11.206Z,1.97
2018-09-27T02:33:39.468Z,2.47
2018-09-27T02:36:07.832Z,2.10
2018-09-27T02:38:36.112Z,2.43
2018-09-27T02:41:04.403Z,2.50
2018-09-27T02:43:32.762Z,2.40
2018-09-27T02:46:01.149Z,2.20
2018-09-27T02:48:29.602Z,2.07
2018-09-27T02:50:57.901Z,2.17
2018-09-27T02:53:26.208Z,2.30
2018-09-27T02:55:54.555Z,2.60
2018-09-27T02:58:22.907Z,2.70
2018-09-27T03:00:51.299Z,2.47
2018-09-27T03:03:19.705Z,2.20
2018-09-27T03:05:48.124Z,2.67
2018-09-27T03:08:16.448Z,2.50
2018-09-27T03:10:44.777Z,2.60
2018-09-27T03:13:13.062Z,2.27
2018-09-27T03:15:41.375Z,2.50
2018-09-27T03:18:09.692Z,2.60
2018-09-27T03:20:37.981Z,2.40
2018-09-27T03:23:06.255Z,2.70
2018-09-27T03:25:34.563Z,2.27
2018-09-27T03:28:02.883Z,2.93
2018-09-27T03:30:31.207Z,2.33
2018-09-27T03:32:59.548Z,2.17
2018-09-27T03:35:28.083Z,2.70
2018-09-27T03:37:56.458Z,2.50
2018-09-27T03:40:25.206Z,3.33
2018-09-27T03:42:53.878Z,2.80
2018-09-27T03:45:22.209Z,2.87
2018-09-27T03:47:50.558Z,2.70
2018-09-27T03:50:18.835Z,2.50
2018-09-27T03:52:47.219Z,2.90
2018-09-27T03:55:15.956Z,2.63
2018-09-27T03:57:44.534Z,2.43
2018-09-27T04:00:12.786Z,2.63
2018-09-27T04:02:41.099Z,3.00
2018-09-27T04:05:09.418Z,3.03
2018-09-27T04:07:37.790Z,2.87
2018-09-27T04:10:06.166Z,3.23
2018-09-27T04:12:34.551Z,3.00
2018-09-27T04:15:02.974Z,3.07
2018-09-27T04:17:31.495Z,3.20
2018-09-27T04:19:59.935Z,2.70
2018-09-27T04:22:28.730Z,2.90
2018-09-27T04:24:57.464Z,2.90
2018-09-27T04:27:25.819Z,2.90
2018-09-27T04:29:54.170Z,2.47
2018-09-27T04:32:22.925Z,2.80
2018-09-27T04:34:51.564Z,2.77
2018-09-27T04:37:19.892Z,2.53
2018-09-27T04:39:48.312Z,2.77
2018-09-27T04:42:16.599Z,3.20
2018-09-27T04:44:44.884Z,3.00
2018-09-27T04:47:13.184Z,3.10
2018-09-27T04:49:41.528Z,3.00
2018-09-27T04:52:09.835Z,3.37
2018-09-27T04:54:38.251Z,2.80
2018-09-27T04:57:06.510Z,3.00
2018-09-27T04:59:34.804Z,2.77
2018-09-27T05:02:03.123Z,2.70
2018-09-27T05:04:31.409Z,4.53
2018-09-27T05:06:59.719Z,2.63
2018-09-27T05:09:28.119Z,3.70
2018-09-27T05:11:56.987Z,3.40
2018-09-27T05:14:25.364Z,3.07
2018-09-27T05:16:53.722Z,3.07
2018-09-27T05:19:22.046Z,3.03
2018-09-27T05:21:50.527Z,3.20
2018-09-27T05:24:18.978Z,2.63
2018-09-27T05:26:47.550Z,3.10
2018-09-27T05:29:15.865Z,2.67
2018-09-27T05:31:44.341Z,3.33
2018-09-27T05:34:12.767Z,4.50
2018-09-27T05:36:41.085Z,3.90
2018-09-27T05:39:10.587Z,3.60
2018-09-27T05:41:39.051Z,3.37
2018-09-27T05:44:07.766Z,3.40
2018-09-27T05:46:36.050Z,3.30
2018-09-27T05:49:04.352Z,3.40
2018-09-27T05:51:32.691Z,2.90
2018-09-27T05:54:01.717Z,3.30
2018-09-27T05:56:30.015Z,3.50
2018-09-27T05:58:58.968Z,4.20
2018-09-27T06:01:27.752Z,3.23
2018-09-27T06:03:56.449Z,4.23
2018-09-27T06:06:24.839Z,5.10
2018-09-27T06:08:53.407Z,4.27
2018-09-27T06:11:21.750Z,4.70
2018-09-27T06:13:50.078Z,4.33
2018-09-27T06:16:18.455Z,4.30
2018-09-27T06:18:46.803Z,4.00
2018-09-27T06:21:15.126Z,4.00
2018-09-27T06:23:43.448Z,4.10
2018-09-27T06:26:11.859Z,3.70
2018-09-27T06:28:40.130Z,4.13
2018-09-27T06:31:08.490Z,4.60
2018-09-27T06:33:36.808Z,3.60
2018-09-27T06:36:05.392Z,4.40
2018-09-27T06:38:33.787Z,3.70
2018-09-27T06:41:02.226Z,3.73
2018-09-27T06:43:30.519Z,3.07
2018-09-27T06:45:58.836Z,3.70
2018-09-27T06:48:27.440Z,3.43
2018-09-27T06:50:55.829Z,3.23
2018-09-27T06:53:24.180Z,3.83
2018-09-27T06:55:52.666Z,4.27
2018-09-27T06:58:20.958Z,3.67
2018-09-27T07:00:49.615Z,3.80
2018-09-27T07:03:18.128Z,3.77
2018-09-27T07:05:46.489Z,3.57
2018-09-27T07:08:14.832Z,3.60
2018-09-27T07:10:43.112Z,3.37
2018-09-27T07:13:11.514Z,3.73
2018-09-27T07:15:39.964Z,4.10
2018-09-27T07:18:08.278Z,3.70
2018-09-27T07:20:36.626Z,3.90
2018-09-27T07:23:04.903Z,4.03
2018-09-27T07:25:33.216Z,4.47
2018-09-27T07:28:01.540Z,4.30
2018-09-27T07:30:29.949Z,4.50
2018-09-27T07:32:58.271Z,4.30
2018-09-27T07:35:26.582Z,4.50
2018-09-27T07:37:54.917Z,4.13
2018-09-27T07:40:23.321Z,3.83
2018-09-27T07:42:51.744Z,4.70
2018-09-27T07:45:20.047Z,4.53
2018-09-27T07:47:48.373Z,4.50
2018-09-27T07:50:16.680Z,3.80
2018-09-27T07:52:45.170Z,4.13
2018-09-27T07:55:13.505Z,4.10
2018-09-27T07:57:41.799Z,4.20
2018-09-27T08:00:10.176Z,4.70
2018-09-27T08:02:38.640Z,4.30
2018-09-27T08:05:06.925Z,3.43
2018-09-27T08:07:35.281Z,4.17
2018-09-27T08:10:03.575Z,4.20
2018-09-27T08:12:32.035Z,4.73
2018-09-27T08:15:00.412Z,4.30
2018-09-27T08:17:29.256Z,4.33
2018-09-27T08:19:57.628Z,5.17
2018-09-27T08:22:26.357Z,4.37
2018-09-27T08:24:54.692Z,4.27
2018-09-27T08:27:23.017Z,4.40
2018-09-27T08:29:51.590Z,4.20
2018-09-27T08:32:19.980Z,4.20
2018-09-27T08:34:48.289Z,4.53
2018-09-27T08:37:16.612Z,4.20
2018-09-27T08:39:44.908Z,4.70
2018-09-27T08:42:13.267Z,4.53
2018-09-27T08:44:41.689Z,4.95
2018-09-27T08:47:10.128Z,5.00
2018-09-27T08:49:38.404Z,4.72
2018-09-27T08:52:06.754Z,5.28
2018-09-27T08:54:35.095Z,5.30
2018-09-27T08:57:03.420Z,5.17
2018-09-27T08:59:31.792Z,4.97
2018-09-27T09:02:00.146Z,4.55
2018-09-27T09:04:28.501Z,4.55
2018-09-27T09:06:56.832Z,4.90
2018-09-27T09:09:25.359Z,5.03
2018-09-27T09:11:53.967Z,4.58
2018-09-27T09:14:22.313Z,4.37
2018-09-27T09:16:50.750Z,4.50
2018-09-27T09:19:19.207Z,5.00
2018-09-27T09:21:47.646Z,4.33
2018-09-27T09:24:15.973Z,5.00
2018-09-27T09:26:44.294Z,4.70
2018-09-27T09:29:12.700Z,5.25
2018-09-27T09:31:41.155Z,5.15
2018-09-27T09:34:09.500Z,5.15
2018-09-27T09:36:37.812Z,3.92
2018-09-27T09:39:07.592Z,5.30
2018-09-27T09:41:36.196Z,4.60
2018-09-27T09:44:04.585Z,4.53
2018-09-27T09:46:39.587Z,4.33
2018-09-27T09:49:07.918Z,4.37
2018-09-27T09:51:36.300Z,4.42
2018-09-27T09:54:04.655Z,4.78
2018-09-27T09:56:33.291Z,3.85
2018-09-27T09:59:01.707Z,4.53
2018-09-27T10:01:30.075Z,4.72
2018-09-27T10:03:58.422Z,4.25
2018-09-27T10:06:26.766Z,4.55
2018-09-27T10:08:55.562Z,4.87
2018-09-27T10:11:23.969Z,4.20
2018-09-27T10:13:52.291Z,4.10
2018-09-27T10:16:20.562Z,3.67
2018-09-27T10:18:48.854Z,3.77
2018-09-27T10:21:17.248Z,4.45
2018-09-27T10:23:52.051Z,4.25
2018-09-27T10:26:20.377Z,4.00
2018-09-27T10:28:48.804Z,3.95
2018-09-27T10:31:17.275Z,3.75
2018-09-27T10:33:45.848Z,3.90
2018-09-27T10:36:14.279Z,3.80
2018-09-27T10:38:42.615Z,4.00
2018-09-27T10:41:10.920Z,3.77
2018-09-27T10:43:39.567Z,4.03
2018-09-27T10:46:07.898Z,4.70
2018-09-27T10:48:36.209Z,4.15
2018-09-27T10:51:04.544Z,4.45
2018-09-27T10:53:32.879Z,4.12
2018-09-27T10:56:01.423Z,4.25
2018-09-27T10:58:29.874Z,4.53
2018-09-27T11:00:58.423Z,4.28
2018-09-27T11:03:26.741Z,3.72
2018-09-27T11:05:55.162Z,3.60
2018-09-27T11:08:23.499Z,3.65
2018-09-27T11:10:51.811Z,4.42
2018-09-27T11:13:20.319Z,3.50
2018-09-27T11:15:48.696Z,3.75
2018-09-27T11:18:17.391Z,4.10
2018-09-27T11:20:46.713Z,3.95
2018-09-27T11:23:15.168Z,4.65
2018-09-27T11:25:43.777Z,4.17
2018-09-27T11:28:12.131Z,3.75
2018-09-27T11:30:40.691Z,4.10
2018-09-27T11:33:09.090Z,3.75
2018-09-27T11:35:37.417Z,3.55
2018-09-27T11:38:06.031Z,3.95
2018-09-27T11:40:34.636Z,4.50
2018-09-27T11:43:02.938Z,3.85
2018-09-27T11:45:31.526Z,4.05
2018-09-27T11:48:00.185Z,3.87
2018-09-27T11:50:28.971Z,3.58
2018-09-27T11:52:57.790Z,3.98
2018-09-27T11:55:26.147Z,4.33
2018-09-27T11:57:54.527Z,3.67
2018-09-27T12:00:22.884Z,4.60
2018-09-27T12:02:51.183Z,3.85
2018-09-27T12:05:19.508Z,3.40
2018-09-27T12:07:47.856Z,4.08
2018-09-27T12:10:16.265Z,3.90
2018-09-27T12:12:44.599Z,3.40
2018-09-27T12:15:12.983Z,3.65
2018-09-27T12:17:41.375Z,3.65
2018-09-27T12:20:09.828Z,4.33
2018-09-27T12:22:38.044Z,3.83
2018-09-27T12:25:06.572Z,3.77
2018-09-27T12:27:34.875Z,3.33
2018-09-27T12:30:03.241Z,3.92
2018-09-27T12:32:31.539Z,4.10
2018-09-27T12:35:00.040Z,3.92
2018-09-27T12:37:28.406Z,4.43
2018-09-27T12:39:57.077Z,4.42
2018-09-27T12:42:25.574Z,4.70
2018-09-27T12:44:54.059Z,4.47
2018-09-27T12:47:22.332Z,5.00
2018-09-27T12:49:50.627Z,4.80
2018-09-27T12:52:19.165Z,4.23
2018-09-27T12:54:47.266Z,4.47
2018-09-27T12:57:15.759Z,4.17
2018-09-27T12:59:44.061Z,4.40
2018-09-27T13:02:12.426Z,4.80
2018-09-27T13:04:40.693Z,4.87
2018-09-27T13:07:09.139Z,4.83
2018-09-27T13:09:37.494Z,6.80
2018-09-27T13:12:05.744Z,5.83
2018-09-27T13:14:34.045Z,5.03
2018-09-27T13:17:02.405Z,5.20
2018-09-27T13:19:30.874Z,5.30
2018-09-27T13:21:59.234Z,5.50
2018-09-27T13:24:28.017Z,6.10
2018-09-27T13:26:56.622Z,4.83
2018-09-27T13:29:25.015Z,4.83
2018-09-27T13:31:53.352Z,4.47
2018-09-27T13:34:21.644Z,4.67
2018-09-27T13:36:49.949Z,4.40
2018-09-27T13:39:18.242Z,4.80
2018-09-27T13:41:46.560Z,5.17
2018-09-27T13:44:15.040Z,5.30
2018-09-27T13:46:43.445Z,4.80
2018-09-27T13:49:11.859Z,5.73
2018-09-27T13:51:40.132Z,5.13
2018-09-27T13:54:08.442Z,5.00
2018-09-27T13:56:36.770Z,4.63
2018-09-27T13:59:05.538Z,4.17
2018-09-27T14:01:33.836Z,4.80
2018-09-27T14:04:02.189Z,5.07
2018-09-27T14:06:30.508Z,4.63
2018-09-27T14:08:58.983Z,5.00
2018-09-27T14:11:27.325Z,4.57
2018-09-27T14:13:56.305Z,4.20
2018-09-27T14:16:24.772Z,5.15
2018-09-27T14:18:53.151Z,4.60
2018-09-27T14:21:21.440Z,4.22
2018-09-27T14:23:49.772Z,3.85
2018-09-27T14:26:18.104Z,4.00
2018-09-27T14:28:46.451Z,4.17
2018-09-27T14:31:14.840Z,3.47
2018-09-27T14:33:43.144Z,3.42
2018-09-27T14:36:11.431Z,3.65
2018-09-27T14:38:39.780Z,3.45
2018-09-27T14:41:08.181Z,3.35
2018-09-27T14:43:36.516Z,3.08
2018-09-27T14:46:04.825Z,3.27
2018-09-27T14:48:33.134Z,3.20
2018-09-27T14:51:01.453Z,2.75
2018-09-27T14:53:29.815Z,3.10
2018-09-27T14:55:58.124Z,2.60
2018-09-27T14:58:26.830Z,2.70
2018-09-27T15:00:55.259Z,2.30
2018-09-27T15:03:23.646Z,2.15
2018-09-27T15:05:51.928Z,2.27
2018-09-27T15:08:20.251Z,2.22
2018-09-27T15:10:48.749Z,2.05
2018-09-27T15:13:17.072Z,1.90
2018-09-27T15:15:45.429Z,1.90
2018-09-27T15:18:13.740Z,2.07
2018-09-27T15:20:42.007Z,1.80
2018-09-27T15:23:10.279Z,1.90
2018-09-27T15:25:38.615Z,1.85
2018-09-27T15:28:06.951Z,1.73
2018-09-27T15:30:35.248Z,1.83
2018-09-27T15:33:03.695Z,2.00
2018-09-27T15:35:32.202Z,1.47
2018-09-27T15:38:00.508Z,1.60
2018-09-27T15:40:28.942Z,2.17
2018-09-27T15:42:57.296Z,1.90
2018-09-27T15:45:25.840Z,1.40
2018-09-27T15:47:54.150Z,1.87
2018-09-27T15:50:22.566Z,1.43
2018-09-27T15:52:50.924Z,1.80
2018-09-27T15:55:19.279Z,2.00
2018-09-27T15:57:47.598Z,2.10
2018-09-27T16:00:15.937Z,1.60
2018-09-27T16:02:44.287Z,2.03
2018-09-27T16:05:12.704Z,2.37
2018-09-27T16:07:41.013Z,2.23
2018-09-27T16:10:09.385Z,2.30
2018-09-27T16:12:37.865Z,2.20
2018-09-27T16:15:06.257Z,2.33
2018-09-27T16:17:34.679Z,2.07
2018-09-27T16:20:03.016Z,2.37
2018-09-27T16:22:31.398Z,2.20
2018-09-27T16:24:59.672Z,2.47
2018-09-27T16:27:28.099Z,2.23
2018-09-27T16:29:56.451Z,2.47
2018-09-27T16:32:24.806Z,2.73
2018-09-27T16:34:53.165Z,3.03
2018-09-27T16:37:21.492Z,2.23
2018-09-27T16:39:50.071Z,2.40
2018-09-27T16:42:18.490Z,2.60
2018-09-27T16:44:46.784Z,2.63
2018-09-27T16:47:15.093Z,2.20
2018-09-27T16:49:43.407Z,2.50
2018-09-27T16:52:11.764Z,2.50
2018-09-27T16:54:40.086Z,2.27
2018-09-27T16:57:08.464Z,2.70
2018-09-27T16:59:36.856Z,2.63
2018-09-27T17:02:05.278Z,2.43
2018-09-27T17:04:33.672Z,2.73
2018-09-27T17:07:02.161Z,2.53
2018-09-27T17:09:30.556Z,2.20
2018-09-27T17:11:58.925Z,2.97
2018-09-27T17:14:27.304Z,2.47
2018-09-27T17:16:55.733Z,2.87
2018-09-27T17:19:24.058Z,3.30
2018-09-27T17:21:52.367Z,3.73
2018-09-27T17:24:20.852Z,3.70
2018-09-27T17:26:49.233Z,3.83
2018-09-27T17:29:17.640Z,3.77
2018-09-27T17:31:46.119Z,4.53
2018-09-27T17:34:14.293Z,3.93
2018-09-27T17:36:42.578Z,3.23
2018-09-27T17:39:10.855Z,3.47
2018-09-27T17:41:39.198Z,3.80
2018-09-27T17:44:07.794Z,3.43
2018-09-27T17:46:36.153Z,2.97
2018-09-27T17:49:04.460Z,3.70
2018-09-27T17:51:33.024Z,3.37
2018-09-27T17:54:01.447Z,3.40
2018-09-27T17:56:29.756Z,3.33
2018-09-27T17:58:58.329Z,3.30
2018-09-27T18:01:26.704Z,3.20
2018-09-27T18:03:55.107Z,3.23
2018-09-27T18:06:23.400Z,3.37
2018-09-27T18:08:51.659Z,3.50
2018-09-27T18:11:20.101Z,3.43
2018-09-27T18:13:48.619Z,4.43
2018-09-27T18:16:17.194Z,4.33
2018-09-27T18:18:45.551Z,4.33
2018-09-27T18:21:14.009Z,4.57
2018-09-27T18:23:42.332Z,4.20
2018-09-27T18:26:10.690Z,4.30
2018-09-27T18:28:39.007Z,4.13
2018-09-27T18:31:07.613Z,5.37
2018-09-27T18:33:35.894Z,5.33
2018-09-27T18:36:04.213Z,6.13
2018-09-27T18:38:32.589Z,6.33
2018-09-27T18:41:00.909Z,5.80
2018-09-27T18:43:29.284Z,6.10
2018-09-27T18:45:57.870Z,5.30
2018-09-27T18:48:26.213Z,5.50
2018-09-27T18:50:54.493Z,4.63
2018-09-27T18:53:22.838Z,4.47
2018-09-27T18:55:51.099Z,4.13
2018-09-27T18:58:19.440Z,4.00
2018-09-27T19:00:47.796Z,4.50
2018-09-27T19:03:16.116Z,4.57
2018-09-27T19:05:44.413Z,5.10
2018-09-27T19:08:12.762Z,5.70
2018-09-27T19:10:41.070Z,5.83
2018-09-27T19:13:09.492Z,4.67
2018-09-27T19:15:37.893Z,4.47
2018-09-27T19:18:06.233Z,4.17
2018-09-27T19:20:34.523Z,4.30
2018-09-27T19:23:02.911Z,4.00
2018-09-27T19:25:31.256Z,4.20
2018-09-27T19:27:59.668Z,4.57
2018-09-27T19:30:28.126Z,4.07
2018-09-27T19:32:56.496Z,3.90
2018-09-27T19:35:24.874Z,3.83
2018-09-27T19:37:53.354Z,3.57
2018-09-27T19:40:21.831Z,4.20
2018-09-27T19:42:50.157Z,4.07
2018-09-27T19:45:18.432Z,3.97
2018-09-27T19:47:46.740Z,4.10
2018-09-27T19:50:15.014Z,3.80
2018-09-27T19:52:43.474Z,3.60
2018-09-27T19:55:11.738Z,3.80
2018-09-27T19:57:40.034Z,3.87
2018-09-27T20:00:08.347Z,3.57
2018-09-27T20:02:36.805Z,3.63
2018-09-27T20:05:05.598Z,3.93
2018-09-27T20:07:33.891Z,3.47
2018-09-27T20:10:02.242Z,3.20
2018-09-27T20:12:30.552Z,3.30
2018-09-27T20:14:59.210Z,3.87
2018-09-27T20:17:27.914Z,4.00
2018-09-27T20:19:56.319Z,3.73
2018-09-27T20:22:24.631Z,3.50
2018-09-27T20:24:52.940Z,2.97
2018-09-27T20:27:21.195Z,3.47
2018-09-27T20:29:49.472Z,3.43
2018-09-27T20:32:17.769Z,3.67
2018-09-27T20:34:46.084Z,3.53
2018-09-27T20:37:14.378Z,3.70
2018-09-27T20:39:42.726Z,3.47
2018-09-27T20:42:11.083Z,3.13
2018-09-27T20:44:39.385Z,3.97
2018-09-27T20:47:07.733Z,4.20
2018-09-27T20:49:36.039Z,3.50
2018-09-27T20:52:04.338Z,3.83
2018-09-27T20:54:32.696Z,3.77
2018-09-27T20:57:01.243Z,3.77
2018-09-27T20:59:29.631Z,3.73
2018-09-27T21:01:58.300Z,3.73
2018-09-27T21:04:26.671Z,3.40
2018-09-27T21:06:55.993Z,3.73
2018-09-27T21:09:24.513Z,4.03
2018-09-27T21:11:52.771Z,3.87
2018-09-27T21:14:21.074Z,3.90
2018-09-27T21:16:49.501Z,4.07
2018-09-27T21:19:17.803Z,4.50
2018-09-27T21:21:46.105Z,4.00
2018-09-27T21:24:14.388Z,3.70
2018-09-27T21:26:42.721Z,3.70
2018-09-27T21:29:11.077Z,3.60
2018-09-27T21:31:39.428Z,3.60
2018-09-27T21:34:07.711Z,3.90
2018-09-27T21:36:35.992Z,4.00
2018-09-27T21:39:05.368Z,4.23
2018-09-27T21:41:33.662Z,3.97
2018-09-27T21:44:02.009Z,4.20
2018-09-27T21:46:30.331Z,3.63
2018-09-27T21:48:58.896Z,3.43
2018-09-27T21:51:27.345Z,3.60
2018-09-27T21:53:55.956Z,3.67
2018-09-27T21:56:24.288Z,3.47
2018-09-27T21:58:52.595Z,3.83
2018-09-27T22:01:20.890Z,3.43
2018-09-27T22:03:49.180Z,3.67
2018-09-27T22:06:17.567Z,3.77
2018-09-27T22:08:45.974Z,3.80
2018-09-27T22:11:14.293Z,6.37
2018-09-27T22:13:42.578Z,5.20
2018-09-27T22:16:10.935Z,4.43
2018-09-27T22:18:39.336Z,4.50
2018-09-27T22:21:07.632Z,5.07
2018-09-27T22:23:35.961Z,4.00
2018-09-27T22:26:04.468Z,4.60
2018-09-27T22:28:32.806Z,3.63
2018-09-27T22:31:01.212Z,3.93
2018-09-27T22:33:29.502Z,4.50
2018-09-27T22:35:57.840Z,4.30
2018-09-27T22:38:26.214Z,3.93
2018-09-27T22:40:54.652Z,4.33
2018-09-27T22:43:23.021Z,4.33
2018-09-27T22:45:51.415Z,4.10
2018-09-27T22:48:19.695Z,3.67
2018-09-27T22:50:47.967Z,4.00
2018-09-27T22:53:16.303Z,3.90
2018-09-27T22:55:44.715Z,4.00
2018-09-27T22:58:13.058Z,3.53
2018-09-27T23:00:41.426Z,3.97
2018-09-27T23:03:09.747Z,3.83
2018-09-27T23:05:38.049Z,3.60
2018-09-27T23:08:06.390Z,3.90
2018-09-27T23:10:34.700Z,3.87
2018-09-27T23:13:02.985Z,4.03
2018-09-27T23:15:31.339Z,3.57
2018-09-27T23:17:59.683Z,3.60
2018-09-27T23:20:27.995Z,3.80
2018-09-27T23:22:56.540Z,3.80
2018-09-27T23:25:25.759Z,3.33
2018-09-27T23:27:54.116Z,3.70
2018-09-27T23:30:22.403Z,6.70
2018-09-27T23:32:50.704Z,3.57
2018-09-27T23:35:18.983Z,4.40
2018-09-27T23:37:47.280Z,4.00
2018-09-27T23:40:15.683Z,3.43
2018-09-27T23:42:44.217Z,4.20
2018-09-27T23:45:12.667Z,3.27
2018-09-27T23:47:40.984Z,3.50
2018-09-27T23:50:09.443Z,3.90
2018-09-27T23:52:37.776Z,3.33
2018-09-27T23:55:06.244Z,3.47
2018-09-27T23:57:34.535Z,3.13
